Time;durP1;ratioP1;P1;durP2;ratioP2;P2;SDS_P1;SDS_P2;PMS_P1;PMS_P2;Temp;Humidity;BMP_temperature;BMP_pressure;BME280_temperature;BME280_humidity;BME280_pressure;Samples;Min_cycle;Max_cycle;Signal;HPM_P1;HPM_P2
2022/01/29 00:00:36;;;;;;;9.40;1.30;;;7.10;40.70;;;;;;5074911;28;20251;-50
2022/01/29 00:03:02;;;;;;;1.20;0.80;;;7.00;40.50;;;;;;5074836;28;20171;-50
2022/01/29 00:05:27;;;;;;;2.97;0.63;;;7.00;40.50;;;;;;5074904;28;20432;-50
2022/01/29 00:07:53;;;;;;;1.30;0.60;;;6.90;40.80;;;;;;5074762;28;20215;-50
2022/01/29 00:10:19;;;;;;;1.50;0.70;;;6.90;40.80;;;;;;5074617;28;20165;-50
2022/01/29 00:12:45;;;;;;;1.37;0.80;;;6.90;40.80;;;;;;5074651;28;20411;-50
2022/01/29 00:15:11;;;;;;;5.20;1.60;;;6.80;40.80;;;;;;5074799;28;20649;-50
2022/01/29 00:17:37;;;;;;;2.13;0.80;;;6.70;40.80;;;;;;5074589;28;20181;-50
2022/01/29 00:20:04;;;;;;;1.75;1.17;;;6.60;40.80;;;;;;5074510;28;20200;-50
2022/01/29 00:22:29;;;;;;;5.93;2.42;;;6.60;41.00;;;;;;5074586;28;20216;-50
2022/01/29 00:24:59;;;;;;;19.93;7.37;;;6.50;41.10;;;;;;5074261;28;20575;-50
2022/01/29 00:27:28;;;;;;;6.60;3.58;;;6.50;41.10;;;;;;5074382;28;20524;-50
2022/01/29 00:29:54;;;;;;;3.90;1.52;;;6.50;41.20;;;;;;5074586;28;20192;-50
2022/01/29 00:32:20;;;;;;;3.40;1.15;;;6.50;41.30;;;;;;5074382;28;20173;-50
2022/01/29 00:34:46;;;;;;;1.38;0.88;;;6.50;41.40;;;;;;5074293;28;20165;-50
2022/01/29 00:37:12;;;;;;;2.37;0.80;;;6.50;41.60;;;;;;5074203;28;20188;-50
2022/01/29 00:39:37;;;;;;;1.30;0.70;;;6.50;41.60;;;;;;5074464;28;20251;-50
2022/01/29 00:42:04;;;;;;;1.30;0.57;;;6.50;41.60;;;;;;5074379;28;20177;-50
2022/01/29 00:44:30;;;;;;;1.20;0.90;;;6.60;41.60;;;;;;5074170;28;20165;-50
2022/01/29 00:46:56;;;;;;;1.47;0.70;;;6.60;41.60;;;;;;5073996;28;20243;-50
2022/01/29 00:49:21;;;;;;;1.20;0.40;;;6.60;41.50;;;;;;5073981;28;20160;-50
2022/01/29 00:51:47;;;;;;;4.30;1.40;;;6.60;41.50;;;;;;5073940;28;20569;-50
2022/01/29 00:54:13;;;;;;;1.30;0.30;;;6.60;41.50;;;;;;5074005;28;20169;-50
2022/01/29 00:56:39;;;;;;;1.63;0.63;;;6.60;41.40;;;;;;5055945;28;20287;-50
2022/01/29 00:59:05;;;;;;;4.32;0.77;;;6.60;41.60;;;;;;5073956;28;20183;-50
2022/01/29 01:01:31;;;;;;;17.50;2.77;;;6.60;41.60;;;;;;5073850;28;20591;-50
2022/01/29 01:03:57;;;;;;;1.85;0.80;;;6.70;41.70;;;;;;5073768;28;20670;-50
2022/01/29 01:06:23;;;;;;;3.50;1.88;;;6.60;41.50;;;;;;5073947;28;20275;-50
2022/01/29 01:08:49;;;;;;;1.40;0.57;;;6.70;41.60;;;;;;5073939;28;20255;-50
2022/01/29 01:11:14;;;;;;;1.20;0.50;;;6.70;41.50;;;;;;5073703;28;20618;-50
2022/01/29 01:13:40;;;;;;;1.40;0.47;;;6.70;41.50;;;;;;5073631;28;20715;-50
2022/01/29 01:16:06;;;;;;;5.50;1.47;;;6.70;41.40;;;;;;5073753;28;20196;-50
2022/01/29 01:18:31;;;;;;;1.27;0.53;;;6.70;41.40;;;;;;5073731;28;20242;-50
2022/01/29 01:20:57;;;;;;;2.80;0.70;;;6.60;41.40;;;;;;5073120;28;20169;-50
2022/01/29 01:23:23;;;;;;;1.07;0.50;;;6.60;41.40;;;;;;5073296;28;20291;-50
2022/01/29 01:25:49;;;;;;;2.00;0.83;;;6.60;41.40;;;;;;5073577;28;20620;-50
2022/01/29 01:28:15;;;;;;;1.60;0.80;;;6.70;41.50;;;;;;5073491;28;20525;-50
2022/01/29 01:30:42;;;;;;;2.35;1.35;;;6.70;41.50;;;;;;5073678;28;20629;-50
2022/01/29 01:33:08;;;;;;;1.95;0.90;;;6.80;41.30;;;;;;5073463;28;20167;-50
2022/01/29 01:35:44;;;;;;;1.10;0.50;;;6.80;41.30;;;;;;5073372;28;20537;-50
2022/01/29 01:38:16;;;;;;;1.38;0.70;;;6.90;41.20;;;;;;5073446;28;20179;-50
2022/01/29 01:40:45;;;;;;;2.65;0.95;;;6.90;41.10;;;;;;5073672;28;20164;-50
2022/01/29 01:43:15;;;;;;;1.20;0.50;;;6.90;41.00;;;;;;5073600;28;20172;-50
2022/01/29 01:45:41;;;;;;;1.83;0.65;;;6.90;41.10;;;;;;5073235;28;20169;-50
2022/01/29 01:48:06;;;;;;;4.47;1.05;;;6.90;41.20;;;;;;5073342;28;20165;-50
2022/01/29 01:50:34;;;;;;;1.20;0.60;;;6.80;41.10;;;;;;5073317;28;20234;-50
2022/01/29 01:53:00;;;;;;;1.20;0.77;;;6.80;41.10;;;;;;5073244;28;20191;-50
2022/01/29 01:55:26;;;;;;;2.25;0.60;;;6.80;41.20;;;;;;5073209;28;20247;-50
2022/01/29 01:57:55;;;;;;;1.75;0.70;;;6.80;41.20;;;;;;5073192;28;20171;-50
2022/01/29 02:00:21;;;;;;;1.10;0.40;;;6.70;41.30;;;;;;5073169;28;20176;-50
2022/01/29 02:02:46;;;;;;;1.00;0.40;;;6.70;41.30;;;;;;5073142;28;20179;-50
2022/01/29 02:05:13;;;;;;;5.53;0.70;;;6.70;41.30;;;;;;5073220;28;20407;-50
2022/01/29 02:07:39;;;;;;;1.00;0.50;;;6.60;41.30;;;;;;5071987;28;20162;-50
2022/01/29 02:10:10;;;;;;;1.93;1.73;;;6.60;41.50;;;;;;5073059;28;20176;-50
2022/01/29 02:12:48;;;;;;;3.40;0.82;;;6.60;41.50;;;;;;5073004;28;20929;-50
2022/01/29 02:15:15;;;;;;;1.52;1.10;;;6.50;41.70;;;;;;5073028;28;20187;-50
2022/01/29 02:17:41;;;;;;;1.00;0.40;;;6.50;41.90;;;;;;5073095;28;20298;-50
2022/01/29 02:20:07;;;;;;;1.20;0.50;;;6.60;41.60;;;;;;5073039;28;20205;-50
2022/01/29 02:22:33;;;;;;;1.40;0.63;;;6.60;41.60;;;;;;5073228;28;20897;-50
2022/01/29 02:24:59;;;;;;;3.17;1.53;;;6.70;41.70;;;;;;5072722;28;20307;-50
2022/01/29 02:27:24;;;;;;;2.73;0.80;;;6.80;41.30;;;;;;5072892;28;20165;-50
2022/01/29 02:29:50;;;;;;;2.07;1.07;;;6.80;41.30;;;;;;5071623;28;20169;-50
2022/01/29 02:32:16;;;;;;;2.23;0.80;;;6.80;41.20;;;;;;5073054;28;20165;-50
2022/01/29 02:34:44;;;;;;;1.00;0.50;;;6.90;41.00;;;;;;5075688;28;20168;-50
2022/01/29 02:37:10;;;;;;;9.38;1.63;;;6.90;40.80;;;;;;5076356;28;20534;-50
2022/01/29 02:39:36;;;;;;;1.20;0.57;;;6.70;41.10;;;;;;5076537;28;20179;-50
2022/01/29 02:42:03;;;;;;;1.10;0.60;;;6.80;40.90;;;;;;5076389;28;20169;-50
2022/01/29 02:44:30;;;;;;;1.95;1.15;;;6.70;41.20;;;;;;5076491;28;20625;-50
2022/01/29 02:47:08;;;;;;;1.10;0.50;;;6.80;40.90;;;;;;5076309;28;20168;-50
2022/01/29 02:49:34;;;;;;;2.75;0.70;;;6.90;40.40;;;;;;5076614;28;20232;-50
2022/01/29 02:51:59;;;;;;;1.60;0.97;;;7.00;40.50;;;;;;5074988;28;20627;-50
2022/01/29 02:54:26;;;;;;;1.60;1.10;;;7.00;40.40;;;;;;5076292;28;20200;-50
2022/01/29 02:56:52;;;;;;;3.75;1.58;;;7.10;40.30;;;;;;5076069;28;20184;-50
2022/01/29 02:59:18;;;;;;;4.17;1.03;;;7.20;40.30;;;;;;5076662;28;20602;-50
2022/01/29 03:01:43;;;;;;;1.23;0.50;;;7.20;40.10;;;;;;5076125;28;20176;-49
2022/01/29 03:04:09;;;;;;;8.53;1.07;;;7.30;40.10;;;;;;5076130;28;20180;-50
2022/01/29 03:06:35;;;;;;;1.73;0.80;;;7.30;39.90;;;;;;5076130;28;20173;-50
2022/01/29 03:09:02;;;;;;;1.38;0.50;;;7.30;40.00;;;;;;5075952;28;20537;-50
2022/01/29 03:11:28;;;;;;;1.10;0.43;;;7.40;39.60;;;;;;5076084;28;20161;-50
2022/01/29 03:13:54;;;;;;;7.13;1.00;;;7.40;39.30;;;;;;5075842;28;20173;-50
2022/01/29 03:16:20;;;;;;;1.00;0.40;;;7.40;39.70;;;;;;5075249;28;20825;-50
2022/01/29 03:18:45;;;;;;;3.37;0.77;;;7.50;39.40;;;;;;5075741;28;20740;-50
2022/01/29 03:21:11;;;;;;;1.50;0.70;;;7.50;40.20;;;;;;5075776;28;20180;-50
2022/01/29 03:23:37;;;;;;;7.53;1.30;;;7.50;39.30;;;;;;5075446;28;20227;-50
2022/01/29 03:26:04;;;;;;;1.63;0.80;;;7.50;39.00;;;;;;5075616;28;20164;-50
2022/01/29 03:28:30;;;;;;;2.05;0.85;;;7.50;39.00;;;;;;5075664;28;20247;-50
2022/01/29 03:30:56;;;;;;;1.20;0.50;;;7.50;39.20;;;;;;5074288;28;20181;-50
2022/01/29 03:33:23;;;;;;;1.10;0.70;;;7.60;39.30;;;;;;5074183;28;20793;-50
2022/01/29 03:35:50;;;;;;;4.35;0.85;;;7.70;39.40;;;;;;5075498;28;20200;-50
2022/01/29 03:38:15;;;;;;;2.35;0.77;;;7.70;39.40;;;;;;5075407;28;20173;-50
2022/01/29 03:40:43;;;;;;;1.20;0.57;;;7.80;39.50;;;;;;5075329;28;20226;-50
2022/01/29 03:43:12;;;;;;;2.40;0.60;;;7.80;39.50;;;;;;5075655;28;20442;-50
2022/01/29 03:45:38;;;;;;;1.27;0.38;;;7.80;39.40;;;;;;5074742;28;20175;-50
2022/01/29 03:48:06;;;;;;;1.87;0.80;;;7.80;39.40;;;;;;5075353;28;20173;-50
2022/01/29 03:50:32;;;;;;;1.70;1.02;;;7.70;39.40;;;;;;5075358;28;20184;-50
2022/01/29 03:52:58;;;;;;;2.28;0.95;;;7.70;40.30;;;;;;5075516;28;20598;-50
2022/01/29 03:55:24;;;;;;;1.50;0.60;;;7.70;39.80;;;;;;5074908;28;20256;-50
2022/01/29 03:57:50;;;;;;;1.47;0.60;;;7.70;40.00;;;;;;5075225;28;20570;-50
2022/01/29 04:00:18;;;;;;;1.30;0.70;;;7.80;40.00;;;;;;5075211;28;20425;-50
2022/01/29 04:02:44;;;;;;;1.65;0.55;;;7.80;39.90;;;;;;5074980;28;20406;-50
2022/01/29 04:05:10;;;;;;;1.30;0.40;;;7.90;39.90;;;;;;5074999;28;20170;-50
2022/01/29 04:07:36;;;;;;;1.55;0.98;;;7.90;39.70;;;;;;5074800;28;20162;-50
2022/01/29 04:10:03;;;;;;;1.20;0.45;;;7.90;40.30;;;;;;5073482;28;20188;-50
2022/01/29 04:12:34;;;;;;;1.05;0.52;;;7.90;40.20;;;;;;5074758;28;20309;-50
2022/01/29 04:15:00;;;;;;;1.20;0.63;;;7.90;40.40;;;;;;5074927;28;20213;-50
2022/01/29 04:17:26;;;;;;;2.33;0.90;;;7.90;40.40;;;;;;5074557;28;20279;-50
2022/01/29 04:19:51;;;;;;;1.10;0.60;;;7.90;40.40;;;;;;5073316;28;20177;-50
2022/01/29 04:22:17;;;;;;;1.73;1.00;;;7.80;40.20;;;;;;5074492;28;20168;-50
2022/01/29 04:24:43;;;;;;;2.50;1.33;;;7.80;40.60;;;;;;5074331;28;20620;-50
2022/01/29 04:27:16;;;;;;;1.27;0.80;;;7.80;41.50;;;;;;5073125;28;20170;-50
2022/01/29 04:29:53;;;;;;;1.63;1.00;;;7.90;40.70;;;;;;5074414;28;20157;-49
2022/01/29 04:32:26;;;;;;;3.47;1.10;;;7.80;40.60;;;;;;5074594;28;20230;-50
2022/01/29 04:34:51;;;;;;;1.70;0.70;;;7.80;40.70;;;;;;5074276;28;20601;-50
2022/01/29 04:37:17;;;;;;;1.43;1.07;;;7.80;40.90;;;;;;5074183;28;20193;-50
2022/01/29 04:39:43;;;;;;;1.60;0.70;;;7.90;40.50;;;;;;5074326;28;20169;-50
2022/01/29 04:42:08;;;;;;;1.63;1.33;;;7.80;40.80;;;;;;5074223;28;20644;-50
2022/01/29 04:44:34;;;;;;;2.17;1.43;;;7.80;40.80;;;;;;5074085;28;20196;-50
2022/01/29 04:47:00;;;;;;;1.60;1.50;;;7.70;41.40;;;;;;5074134;28;20910;-50
2022/01/29 04:49:25;;;;;;;1.30;0.70;;;7.60;41.50;;;;;;5074045;28;20569;-50
2022/01/29 04:51:51;;;;;;;2.57;1.00;;;7.50;42.10;;;;;;5072704;28;20209;-50
2022/01/29 04:54:16;;;;;;;2.23;1.47;;;7.70;41.90;;;;;;5074186;28;20675;-50
2022/01/29 04:56:42;;;;;;;1.40;0.60;;;7.70;42.00;;;;;;5073092;28;20181;-50
2022/01/29 04:59:08;;;;;;;2.77;1.70;;;7.80;41.80;;;;;;5072579;28;20172;-50
2022/01/29 05:01:33;;;;;;;1.60;1.00;;;7.70;41.80;;;;;;5073801;28;20169;-50
2022/01/29 05:03:59;;;;;;;1.80;1.00;;;7.80;41.70;;;;;;5072515;28;20171;-50
2022/01/29 05:06:25;;;;;;;4.23;1.10;;;7.90;41.50;;;;;;5073763;28;20166;-50
2022/01/29 05:08:50;;;;;;;3.07;2.67;;;7.90;41.50;;;;;;5073907;28;20172;-50
2022/01/29 05:11:17;;;;;;;1.70;1.20;;;7.90;41.70;;;;;;5072435;28;20267;-50
2022/01/29 05:13:43;;;;;;;2.15;1.25;;;8.00;41.50;;;;;;5073798;28;20706;-49
2022/01/29 05:27:04;;;;;;;1.70;1.25;;;7.90;42.20;;;;;;5073639;28;20214;-50
2022/01/29 05:29:33;;;;;;;2.38;1.23;;;8.00;42.30;;;;;;5073357;28;20177;-50
2022/01/29 05:32:05;;;;;;;6.55;1.13;;;7.80;43.30;;;;;;5073461;28;20271;-50
2022/01/29 05:34:31;;;;;;;1.48;0.85;;;7.80;43.00;;;;;;5073443;28;20648;-50
2022/01/29 05:36:56;;;;;;;1.93;1.13;;;7.70;43.10;;;;;;5073329;28;20196;-50
2022/01/29 05:39:24;;;;;;;2.80;1.33;;;7.80;43.00;;;;;;5073425;28;20169;-50
2022/01/29 05:41:50;;;;;;;3.05;1.13;;;7.70;43.20;;;;;;5073455;28;20221;-50
2022/01/29 05:44:16;;;;;;;2.25;1.33;;;7.70;43.30;;;;;;5073319;28;20254;-50
2022/01/29 05:46:42;;;;;;;2.37;1.23;;;7.60;43.50;;;;;;5073310;28;20203;-50
2022/01/29 05:49:07;;;;;;;3.47;1.80;;;7.70;43.70;;;;;;5073310;28;20188;-50
2022/01/29 05:51:33;;;;;;;2.60;1.50;;;7.70;43.50;;;;;;5073255;28;20208;-50
2022/01/29 05:54:00;;;;;;;4.30;1.70;;;7.80;43.30;;;;;;5072178;28;20230;-50
2022/01/29 05:56:26;;;;;;;3.58;1.48;;;7.80;43.60;;;;;;5073164;28;20277;-50
2022/01/29 05:58:52;;;;;;;1.75;1.33;;;7.80;43.20;;;;;;5073333;28;20181;-50
2022/01/29 06:01:19;;;;;;;4.22;2.20;;;7.90;43.20;;;;;;5073898;28;20506;-50
2022/01/29 06:03:45;;;;;;;3.67;1.30;;;8.00;43.10;;;;;;5073276;28;20525;-50
2022/01/29 06:06:11;;;;;;;1.80;1.00;;;7.90;43.10;;;;;;5073142;28;20244;-50
2022/01/29 06:08:36;;;;;;;5.45;1.58;;;8.00;42.80;;;;;;5075753;28;20403;-50
2022/01/29 06:11:02;;;;;;;2.00;1.20;;;8.00;43.00;;;;;;5077102;28;20265;-50
2022/01/29 06:13:28;;;;;;;2.53;1.80;;;8.00;43.20;;;;;;5076997;28;20210;-50
2022/01/29 06:15:54;;;;;;;2.73;1.73;;;8.00;43.00;;;;;;5076927;28;20197;-50
2022/01/29 06:18:22;;;;;;;4.70;1.40;;;7.90;43.40;;;;;;5076906;28;20191;-50
2022/01/29 06:20:53;;;;;;;3.40;1.17;;;7.90;43.90;;;;;;5076833;28;20256;-50
2022/01/29 06:23:24;;;;;;;2.80;1.40;;;7.90;43.80;;;;;;5076460;28;20699;-50
2022/01/29 06:25:50;;;;;;;3.20;2.25;;;8.00;43.60;;;;;;5076924;28;20157;-50
2022/01/29 06:28:16;;;;;;;2.30;1.80;;;8.00;43.50;;;;;;5076750;28;20169;-50
2022/01/29 06:30:41;;;;;;;3.10;2.10;;;7.90;43.90;;;;;;5076629;28;20423;-50
2022/01/29 06:33:09;;;;;;;2.00;1.60;;;7.90;43.90;;;;;;5076645;28;20166;-50
2022/01/29 06:35:36;;;;;;;2.50;2.25;;;7.80;44.30;;;;;;5076668;28;20422;-50
2022/01/29 06:38:02;;;;;;;2.55;1.60;;;7.80;44.20;;;;;;5076580;28;20171;-50
2022/01/29 06:40:28;;;;;;;2.88;2.10;;;7.90;44.10;;;;;;5076452;28;20165;-50
2022/01/29 06:42:56;;;;;;;2.40;2.07;;;7.80;44.30;;;;;;5076421;28;20537;-50
2022/01/29 06:45:21;;;;;;;2.67;1.58;;;7.90;44.50;;;;;;5076346;28;20182;-50
2022/01/29 06:47:47;;;;;;;4.17;2.30;;;7.90;44.30;;;;;;5076521;28;20165;-50
2022/01/29 06:50:13;;;;;;;3.30;1.57;;;8.00;44.10;;;;;;5076304;28;20787;-50
2022/01/29 06:52:38;;;;;;;6.70;2.03;;;8.10;43.90;;;;;;5076239;28;20200;-50
2022/01/29 06:55:04;;;;;;;4.13;1.80;;;8.20;43.60;;;;;;5076232;28;20170;-50
2022/01/29 06:57:30;;;;;;;4.50;1.60;;;8.30;43.50;;;;;;5076095;28;20192;-50
2022/01/29 06:59:56;;;;;;;3.40;2.43;;;8.50;43.10;;;;;;5076207;28;20174;-50
2022/01/29 07:02:21;;;;;;;1.90;1.47;;;8.50;42.80;;;;;;5076065;28;20573;-50
2022/01/29 07:04:47;;;;;;;8.33;1.77;;;8.50;42.80;;;;;;5075991;28;20548;-50
2022/01/29 07:07:13;;;;;;;3.23;2.00;;;8.50;42.90;;;;;;5075979;28;20166;-50
2022/01/29 07:09:38;;;;;;;4.13;2.00;;;8.60;42.70;;;;;;5076257;28;20168;-50
2022/01/29 07:12:09;;;;;;;2.37;1.53;;;8.70;42.70;;;;;;5075984;28;20166;-50
2022/01/29 07:14:39;;;;;;;4.90;2.17;;;8.80;42.50;;;;;;5075816;28;20161;-50
2022/01/29 07:17:13;;;;;;;5.50;1.40;;;8.80;42.50;;;;;;5075996;28;20207;-50
2022/01/29 07:19:39;;;;;;;3.97;1.92;;;8.80;42.50;;;;;;5074820;28;20163;-50
2022/01/29 07:22:05;;;;;;;2.35;1.08;;;8.80;42.80;;;;;;5075733;28;20171;-50
2022/01/29 07:24:33;;;;;;;2.50;1.08;;;8.70;43.00;;;;;;5074120;28;20227;-50
2022/01/29 07:26:58;;;;;;;3.10;1.35;;;8.60;43.40;;;;;;5075724;28;20167;-50
2022/01/29 07:29:24;;;;;;;2.80;1.13;;;8.50;43.90;;;;;;5075637;28;20510;-50
2022/01/29 07:31:50;;;;;;;2.97;1.75;;;8.50;43.90;;;;;;5075439;28;20189;-50
2022/01/29 07:34:17;;;;;;;3.78;1.50;;;8.50;44.10;;;;;;5075479;28;20202;-50
2022/01/29 07:36:42;;;;;;;3.10;1.38;;;8.60;44.10;;;;;;5075375;28;20224;-50
2022/01/29 07:39:08;;;;;;;3.03;2.13;;;8.60;43.90;;;;;;5075450;28;20205;-50
2022/01/29 07:41:34;;;;;;;2.15;1.35;;;8.50;44.60;;;;;;5074017;28;20181;-50
2022/01/29 07:44:00;;;;;;;2.57;1.03;;;8.50;45.20;;;;;;5075266;28;20527;-50
2022/01/29 07:46:26;;;;;;;2.10;1.27;;;8.40;45.60;;;;;;5073981;28;20408;-50
2022/01/29 07:48:51;;;;;;;2.83;1.30;;;8.50;45.20;;;;;;5075306;28;20186;-50
2022/01/29 07:51:17;;;;;;;3.90;2.00;;;8.50;45.50;;;;;;5075213;28;20169;-50
2022/01/29 07:53:43;;;;;;;2.97;1.40;;;8.60;45.70;;;;;;5075059;28;20168;-50
2022/01/29 07:56:09;;;;;;;3.37;2.23;;;8.60;45.90;;;;;;5075097;28;20182;-50
2022/01/29 07:58:36;;;;;;;4.13;2.53;;;8.60;45.60;;;;;;5075024;28;20170;-50
2022/01/29 08:01:02;;;;;;;3.35;1.73;;;8.70;45.60;;;;;;5074990;28;20535;-50
2022/01/29 08:03:27;;;;;;;4.32;2.15;;;8.60;45.60;;;;;;5074884;28;20169;-50
2022/01/29 08:05:53;;;;;;;3.47;1.90;;;8.70;45.30;;;;;;5074982;28;20217;-50
2022/01/29 08:08:19;;;;;;;2.83;1.73;;;8.70;45.70;;;;;;5074764;28;20240;-50
2022/01/29 08:10:44;;;;;;;3.50;1.20;;;8.70;46.00;;;;;;5074828;28;20635;-50
2022/01/29 08:13:10;;;;;;;3.53;1.90;;;8.70;46.20;;;;;;5074758;28;20251;-50
2022/01/29 08:15:36;;;;;;;2.60;1.07;;;8.70;46.50;;;;;;5074557;28;20173;-50
2022/01/29 08:18:02;;;;;;;4.87;1.57;;;8.50;47.30;;;;;;5074657;28;20414;-50
2022/01/29 08:20:28;;;;;;;3.28;2.00;;;8.50;47.50;;;;;;5074547;28;20167;-50
2022/01/29 08:22:54;;;;;;;4.20;1.67;;;8.40;48.40;;;;;;5074617;28;20259;-50
2022/01/29 08:25:19;;;;;;;4.60;1.50;;;8.60;47.60;;;;;;5074273;28;20212;-50
2022/01/29 08:27:45;;;;;;;2.33;1.73;;;8.50;48.00;;;;;;5074499;28;20176;-50
2022/01/29 08:30:11;;;;;;;3.77;1.60;;;8.40;48.00;;;;;;5074334;28;20178;-50
2022/01/29 08:32:41;;;;;;;2.53;1.55;;;8.60;47.80;;;;;;5074286;28;20171;-50
2022/01/29 08:35:13;;;;;;;3.28;2.10;;;8.70;47.20;;;;;;5074249;28;20263;-50
2022/01/29 08:37:38;;;;;;;2.40;1.35;;;8.70;47.10;;;;;;5074443;28;20269;-50
2022/01/29 08:40:06;;;;;;;3.27;1.60;;;8.70;47.10;;;;;;5074317;28;20639;-50
2022/01/29 08:42:31;;;;;;;3.60;1.90;;;8.70;47.00;;;;;;5072828;28;20183;-50
2022/01/29 08:44:57;;;;;;;3.00;1.77;;;8.70;47.40;;;;;;5074093;28;20175;-50
2022/01/29 08:47:23;;;;;;;2.87;1.20;;;8.70;47.50;;;;;;5074098;28;20165;-50
2022/01/29 08:49:48;;;;;;;2.43;1.17;;;8.70;47.60;;;;;;5074183;28;20165;-50
2022/01/29 08:52:14;;;;;;;3.43;1.30;;;8.80;47.10;;;;;;5073903;28;20196;-50
2022/01/29 08:54:40;;;;;;;1.80;1.03;;;8.80;46.90;;;;;;5073841;28;20547;-50
2022/01/29 08:57:06;;;;;;;1.93;0.97;;;8.90;47.20;;;;;;5073796;28;20560;-50
2022/01/29 08:59:31;;;;;;;1.60;0.88;;;8.90;47.20;;;;;;5073860;28;20245;-50
2022/01/29 09:01:57;;;;;;;2.63;1.60;;;8.90;47.10;;;;;;5072579;28;20210;-50
2022/01/29 09:04:23;;;;;;;4.17;1.70;;;8.90;47.60;;;;;;5073787;28;20178;-50
2022/01/29 09:06:49;;;;;;;2.80;0.80;;;8.90;47.50;;;;;;5073965;28;20186;-50
2022/01/29 09:09:20;;;;;;;3.53;1.27;;;8.90;47.30;;;;;;5073746;28;20175;-50
2022/01/29 09:11:47;;;;;;;1.40;0.57;;;8.80;47.80;;;;;;5073656;28;20175;-50
2022/01/29 09:14:12;;;;;;;2.05;1.10;;;8.90;48.10;;;;;;5073590;28;20571;-50
2022/01/29 09:16:38;;;;;;;3.40;1.20;;;8.90;47.70;;;;;;5073546;28;20190;-50
2022/01/29 09:19:04;;;;;;;4.37;2.77;;;8.90;47.70;;;;;;5073564;28;20174;-50
2022/01/29 09:21:29;;;;;;;3.43;1.20;;;8.90;47.80;;;;;;5073514;28;20176;-50
2022/01/29 09:23:56;;;;;;;4.43;1.70;;;8.90;47.80;;;;;;5073351;28;20276;-50
2022/01/29 09:26:23;;;;;;;4.32;1.20;;;8.90;48.60;;;;;;5073688;28;20227;-50
2022/01/29 09:28:49;;;;;;;2.50;1.38;;;8.90;48.20;;;;;;5073540;28;20169;-50
2022/01/29 09:31:14;;;;;;;1.70;1.10;;;8.90;48.20;;;;;;5073442;28;20511;-50
2022/01/29 09:33:40;;;;;;;1.47;0.93;;;8.90;48.50;;;;;;5073427;28;20448;-50
2022/01/29 09:36:06;;;;;;;2.23;1.17;;;8.90;48.30;;;;;;5073435;28;20197;-50
2022/01/29 09:38:32;;;;;;;1.97;1.30;;;8.90;48.60;;;;;;5073377;28;20188;-50
2022/01/29 09:40:58;;;;;;;4.00;2.00;;;8.80;49.10;;;;;;5072036;28;20179;-50
2022/01/29 09:43:28;;;;;;;3.17;1.25;;;8.80;49.10;;;;;;5076713;28;20188;-50
2022/01/29 09:45:54;;;;;;;2.30;1.30;;;8.80;48.80;;;;;;5080138;28;20243;-50
2022/01/29 09:48:24;;;;;;;2.90;0.90;;;8.80;49.50;;;;;;5079896;28;20209;-50
2022/01/29 09:50:51;;;;;;;1.52;0.90;;;8.90;49.10;;;;;;5079954;28;20837;-50
2022/01/29 09:53:17;;;;;;;2.05;0.98;;;9.00;49.70;;;;;;5079926;28;20194;-50
2022/01/29 09:55:43;;;;;;;2.17;1.15;;;8.80;50.00;;;;;;5078509;28;20166;-50
2022/01/29 09:58:10;;;;;;;2.63;1.10;;;8.80;50.30;;;;;;5079919;28;20186;-50
2022/01/29 10:00:37;;;;;;;1.70;0.70;;;8.80;50.00;;;;;;5079892;28;20164;-50
2022/01/29 10:03:21;;;;;;;1.85;0.80;;;8.90;50.40;;;;;;5079847;28;20164;-50
2022/01/29 10:05:52;;;;;;;2.38;0.50;;;9.00;50.00;;;;;;5079837;28;20154;-50
2022/01/29 10:08:19;;;;;;;4.35;2.50;;;9.00;49.90;;;;;;5078914;28;20571;-50
2022/01/29 10:10:46;;;;;;;2.58;1.05;;;9.00;49.70;;;;;;5079960;28;20165;-50
2022/01/29 10:13:26;;;;;;;2.28;1.20;;;8.90;50.20;;;;;;5079771;28;20176;-50
2022/01/29 10:16:19;;;;;;;1.40;0.70;;;8.90;50.20;;;;;;5079833;28;20171;-50
2022/01/29 10:18:52;;;;;;;2.95;1.10;;;8.90;50.80;;;;;;5079915;28;20190;-50
2022/01/29 10:21:22;;;;;;;2.83;1.15;;;8.90;51.00;;;;;;5079704;28;20513;-50
2022/01/29 10:23:48;;;;;;;1.75;1.00;;;8.90;50.60;;;;;;5079512;28;20283;-51
2022/01/29 10:26:28;;;;;;;2.40;1.23;;;8.90;50.80;;;;;;5079559;28;20642;-50
2022/01/29 10:28:55;;;;;;;2.78;1.42;;;8.90;50.80;;;;;;5079568;28;20471;-50
2022/01/29 10:31:21;;;;;;;2.53;1.38;;;8.70;51.50;;;;;;5079638;28;20181;-50
2022/01/29 10:33:47;;;;;;;1.70;1.13;;;8.70;52.10;;;;;;5079462;28;20248;-50
2022/01/29 10:36:16;;;;;;;2.42;1.10;;;8.60;52.30;;;;;;5079671;28;20871;-50
2022/01/29 10:38:57;;;;;;;1.75;0.95;;;8.50;52.70;;;;;;5079396;28;20235;-50
2022/01/29 10:41:31;;;;;;;2.83;1.75;;;8.50;52.80;;;;;;5079458;28;20177;-50
2022/01/29 10:43:58;;;;;;;1.63;1.40;;;8.60;52.70;;;;;;5079624;28;20170;-50
2022/01/29 10:46:28;;;;;;;3.65;1.60;;;8.60;52.60;;;;;;5079672;28;20177;-50
2022/01/29 10:48:56;;;;;;;1.25;0.75;;;8.70;52.50;;;;;;5078348;28;20239;-50
2022/01/29 10:51:22;;;;;;;3.15;1.65;;;8.50;53.20;;;;;;5079399;28;20203;-50
2022/01/29 10:53:48;;;;;;;1.20;0.70;;;8.70;52.70;;;;;;5077436;28;20203;-50
2022/01/29 10:56:14;;;;;;;2.33;0.90;;;8.80;52.60;;;;;;5075840;28;20228;-50
2022/01/29 10:58:43;;;;;;;4.20;1.83;;;8.80;52.10;;;;;;5076124;28;20174;-50
2022/01/29 11:01:17;;;;;;;2.60;1.30;;;8.80;52.00;;;;;;5076151;28;20450;-50
2022/01/29 11:03:43;;;;;;;2.25;1.15;;;8.80;52.10;;;;;;5074847;28;20528;-50
2022/01/29 11:06:13;;;;;;;1.67;1.10;;;8.80;52.10;;;;;;5076104;28;20224;-50
2022/01/29 11:08:40;;;;;;;1.95;1.00;;;8.70;52.10;;;;;;5075976;28;20168;-50
2022/01/29 11:11:08;;;;;;;1.95;1.00;;;8.70;52.10;;;;;;5074571;28;20181;-50
2022/01/29 11:13:35;;;;;;;1.60;1.08;;;8.70;52.60;;;;;;5075744;28;20195;-50
2022/01/29 11:16:03;;;;;;;3.20;1.10;;;8.80;52.40;;;;;;5057839;28;20558;-50
2022/01/29 11:18:31;;;;;;;1.90;1.58;;;8.90;52.20;;;;;;5074459;28;20263;-50
2022/01/29 11:20:57;;;;;;;1.75;1.10;;;8.90;51.90;;;;;;5075743;28;20172;-50
2022/01/29 11:23:25;;;;;;;3.53;2.22;;;9.00;51.90;;;;;;5075427;28;20717;-51
2022/01/29 11:25:59;;;;;;;1.50;0.80;;;9.10;51.80;;;;;;5075805;28;20164;-50
2022/01/29 11:28:27;;;;;;;2.80;1.00;;;9.00;51.00;;;;;;5075511;28;20181;-50
2022/01/29 11:31:28;;;;;;;2.67;1.60;;;8.90;51.70;;;;;;5075743;28;20163;-50
2022/01/29 11:33:59;;;;;;;1.63;0.98;;;8.90;52.00;;;;;;5063961;28;20178;-50
2022/01/29 11:36:48;;;;;;;1.38;0.73;;;9.10;51.50;;;;;;5075334;28;20198;-50
2022/01/29 11:39:28;;;;;;;2.10;0.98;;;9.10;51.10;;;;;;5071869;28;20692;-50
2022/01/29 11:42:13;;;;;;;2.60;1.48;;;9.30;50.50;;;;;;5075647;28;20298;-50
2022/01/29 11:44:40;;;;;;;2.53;1.10;;;9.30;50.10;;;;;;5075215;28;20172;-51
2022/01/29 11:47:25;;;;;;;2.35;1.58;;;9.20;50.70;;;;;;5075264;28;20659;-50
2022/01/29 11:49:52;;;;;;;1.52;0.80;;;9.30;50.50;;;;;;5075142;28;20660;-50
2022/01/29 11:52:23;;;;;;;3.38;1.15;;;9.30;50.00;;;;;;5075192;28;20175;-50
2022/01/29 11:55:04;;;;;;;5.30;1.90;;;9.30;50.00;;;;;;5075183;28;20176;-50
2022/01/29 11:57:30;;;;;;;3.72;1.52;;;9.30;50.50;;;;;;5074940;28;20257;-50
2022/01/29 12:00:16;;;;;;;1.30;0.57;;;9.40;49.80;;;;;;5075008;28;20651;-50
2022/01/29 12:02:43;;;;;;;3.38;1.17;;;9.40;49.70;;;;;;5074835;28;20164;-50
2022/01/29 12:05:10;;;;;;;1.42;0.73;;;9.40;49.70;;;;;;5074660;28;20565;-50
2022/01/29 12:08:07;;;;;;;1.38;0.80;;;9.60;49.40;;;;;;5074786;28;20168;-50
2022/01/29 12:10:40;;;;;;;1.88;0.90;;;9.60;49.20;;;;;;5075043;28;20254;-50
2022/01/29 12:13:13;;;;;;;3.55;1.00;;;9.50;49.50;;;;;;5074663;28;20165;-50
2022/01/29 12:15:39;;;;;;;2.30;1.17;;;9.60;49.00;;;;;;5074905;28;20173;-50
2022/01/29 12:18:25;;;;;;;1.75;0.90;;;9.60;48.80;;;;;;5074560;28;20295;-50
2022/01/29 12:20:51;;;;;;;2.17;0.80;;;9.60;49.20;;;;;;5074551;28;20241;-50
2022/01/29 12:23:16;;;;;;;2.33;0.77;;;9.60;48.60;;;;;;5074414;28;20204;-51
2022/01/29 12:25:50;;;;;;;1.60;0.70;;;9.60;48.90;;;;;;5073222;28;20456;-50
2022/01/29 12:28:15;;;;;;;1.73;1.08;;;9.60;48.40;;;;;;5073163;28;20172;-50
2022/01/29 12:30:43;;;;;;;1.43;0.60;;;9.60;48.90;;;;;;5074448;28;20646;-50
2022/01/29 12:33:12;;;;;;;1.67;0.80;;;9.60;48.40;;;;;;5074296;28;20524;-50
2022/01/29 12:35:53;;;;;;;3.05;1.25;;;9.50;48.40;;;;;;5074169;28;20169;-50
2022/01/29 12:38:28;;;;;;;1.55;0.68;;;9.60;49.10;;;;;;5074147;28;20575;-50
2022/01/29 12:41:04;;;;;;;1.10;0.57;;;9.70;48.60;;;;;;5074305;28;20608;-50
2022/01/29 12:43:42;;;;;;;2.15;0.93;;;9.70;48.40;;;;;;5074125;28;20163;-50
2022/01/29 12:46:13;;;;;;;2.63;0.90;;;9.80;48.00;;;;;;5074191;28;20167;-50
2022/01/29 12:48:40;;;;;;;1.30;0.60;;;9.90;48.00;;;;;;5074001;28;20635;-50
2022/01/29 12:51:08;;;;;;;1.90;1.50;;;10.00;47.80;;;;;;5074012;28;20218;-50
2022/01/29 12:53:34;;;;;;;1.70;0.85;;;10.00;47.70;;;;;;5073846;28;20214;-50
2022/01/29 12:56:00;;;;;;;1.60;0.60;;;10.10;47.30;;;;;;5073955;28;20176;-50
2022/01/29 12:58:40;;;;;;;3.50;0.90;;;10.10;47.00;;;;;;5073847;28;20759;-50
2022/01/29 13:01:12;;;;;;;1.40;0.60;;;10.10;47.10;;;;;;5073945;28;20156;-50
2022/01/29 13:03:39;;;;;;;2.55;1.73;;;10.00;46.90;;;;;;5073709;28;20593;-50
2022/01/29 13:06:11;;;;;;;2.10;1.25;;;10.00;47.20;;;;;;5073783;28;20165;-50
2022/01/29 13:08:37;;;;;;;1.85;0.80;;;10.00;47.00;;;;;;5073800;28;20161;-50
2022/01/29 13:11:18;;;;;;;2.00;0.60;;;10.00;46.60;;;;;;5073785;28;20160;-50